createdAt,value
2018-03-27T00:01:18.313Z,9.18
2018-03-27T00:03:45.806Z,9.63
2018-03-27T00:06:13.314Z,9.18
2018-03-27T00:08:40.793Z,10.68
2018-03-27T00:11:09.168Z,11.05
2018-03-27T00:13:37.413Z,10.25
2018-03-27T00:16:04.914Z,10.13
2018-03-27T00:18:33.159Z,10.20
2018-03-27T00:21:00.658Z,11.43
2018-03-27T00:23:28.146Z,11.27
2018-03-27T00:25:55.647Z,11.57
2018-03-27T00:28:37.194Z,11.88
2018-03-27T00:31:16.642Z,11.68
2018-03-27T00:33:55.996Z,9.85
2018-03-27T00:36:35.665Z,9.05
2018-03-27T00:39:15.822Z,10.52
2018-03-27T00:44:38.897Z,8.95
2018-03-27T00:47:07.151Z,9.05
2018-03-27T00:49:34.641Z,8.80
2018-03-27T00:52:02.160Z,10.85
2018-03-27T00:54:29.734Z,10.57
2018-03-27T00:56:58.029Z,11.40
2018-03-27T00:59:26.313Z,11.57
2018-03-27T01:01:54.195Z,10.73
2018-03-27T01:04:21.739Z,11.95
2018-03-27T01:06:49.997Z,12.70
2018-03-27T01:09:18.265Z,11.88
2018-03-27T01:11:45.849Z,12.15
2018-03-27T01:14:13.386Z,13.13
2018-03-27T01:16:41.675Z,14.40
2018-03-27T01:19:09.953Z,14.75
2018-03-27T01:21:38.323Z,13.15
2018-03-27T01:24:06.602Z,13.77
2018-03-27T01:26:34.870Z,14.98
2018-03-27T01:29:03.142Z,17.65
2018-03-27T01:31:30.643Z,16.35
2018-03-27T01:33:58.144Z,17.35
2018-03-27T01:36:25.679Z,19.98
2018-03-27T01:38:53.218Z,14.90
2018-03-27T01:41:20.694Z,13.15
2018-03-27T01:43:48.177Z,10.65
2018-03-27T01:46:15.691Z,9.52
2018-03-27T01:48:43.170Z,8.95
2018-03-27T01:51:10.672Z,8.13
2018-03-27T01:53:38.938Z,9.10
2018-03-27T01:56:06.577Z,8.45
2018-03-27T01:58:34.065Z,8.60
2018-03-27T02:01:01.728Z,8.57
2018-03-27T02:03:30.025Z,9.90
2018-03-27T02:05:57.678Z,10.10
2018-03-27T02:08:25.932Z,9.93
2018-03-27T02:10:53.733Z,10.25
2018-03-27T02:13:26.965Z,9.48
2018-03-27T02:16:00.204Z,10.90
2018-03-27T02:18:34.301Z,15.20
2018-03-27T02:21:08.161Z,15.45
2018-03-27T02:23:35.638Z,16.02
2018-03-27T02:26:03.142Z,15.40
2018-03-27T02:28:31.397Z,15.93
2018-03-27T02:31:00.055Z,17.73
2018-03-27T02:33:27.662Z,17.60
2018-03-27T02:35:55.918Z,20.05
2018-03-27T02:38:23.418Z,20.20
2018-03-27T02:40:50.943Z,18.35
2018-03-27T02:43:19.215Z,19.23
2018-03-27T02:45:47.475Z,20.65
2018-03-27T02:48:14.974Z,19.90
2018-03-27T02:50:42.468Z,20.50
2018-03-27T02:53:09.969Z,21.02
2018-03-27T02:55:38.219Z,23.20
2018-03-27T02:58:05.719Z,23.00
2018-03-27T03:00:33.264Z,26.35
2018-03-27T03:03:01.550Z,22.40
2018-03-27T03:05:29.790Z,22.98
2018-03-27T03:07:57.289Z,23.55
2018-03-27T03:10:24.768Z,27.10
2018-03-27T03:12:52.258Z,24.83
2018-03-27T03:15:19.758Z,23.87
2018-03-27T03:17:48.033Z,23.85
2018-03-27T03:20:16.297Z,20.95
2018-03-27T03:22:43.863Z,22.17
2018-03-27T03:25:12.148Z,20.42
2018-03-27T03:27:39.703Z,24.02
2018-03-27T03:30:07.970Z,21.25
2018-03-27T03:32:36.263Z,18.73
2018-03-27T03:35:04.529Z,20.42
2018-03-27T03:37:32.803Z,16.52
2018-03-27T03:40:01.067Z,18.67
2018-03-27T03:42:28.558Z,17.35
2018-03-27T03:44:56.070Z,19.33
2018-03-27T03:47:23.576Z,19.33
2018-03-27T03:49:51.082Z,21.17
2018-03-27T03:52:18.570Z,19.80
2018-03-27T03:54:46.834Z,19.58
2018-03-27T03:57:15.114Z,19.52
2018-03-27T03:59:43.405Z,18.80
2018-03-27T04:02:11.666Z,20.52
2018-03-27T04:04:39.937Z,24.65
2018-03-27T04:07:07.516Z,23.30
2018-03-27T04:09:35.871Z,20.62
2018-03-27T04:12:03.404Z,21.02
2018-03-27T04:14:30.864Z,20.60
2018-03-27T04:16:58.397Z,21.27
2018-03-27T04:19:25.863Z,22.10
2018-03-27T04:21:53.350Z,22.60
2018-03-27T04:24:20.842Z,22.52
2018-03-27T04:26:49.110Z,24.40
2018-03-27T04:29:17.391Z,22.90
2018-03-27T04:31:45.661Z,25.37
2018-03-27T04:34:13.911Z,27.35
2018-03-27T04:36:41.494Z,27.73
2018-03-27T04:39:09.786Z,28.05
2018-03-27T04:41:38.054Z,28.20
2018-03-27T04:44:06.299Z,28.25
2018-03-27T04:46:33.807Z,29.20
2018-03-27T04:49:01.295Z,28.62
2018-03-27T04:51:28.804Z,28.87
2018-03-27T04:53:57.092Z,27.95
2018-03-27T04:56:24.633Z,29.58
2018-03-27T04:58:52.897Z,31.10
2018-03-27T05:01:20.381Z,30.27
2018-03-27T05:03:48.895Z,31.15
2018-03-27T05:06:16.394Z,33.15
2018-03-27T05:08:43.966Z,31.87
2018-03-27T05:11:12.250Z,32.35
2018-03-27T05:13:40.518Z,34.78
2018-03-27T05:16:08.801Z,32.63
2018-03-27T05:18:37.064Z,29.92
2018-03-27T05:21:05.346Z,29.80
2018-03-27T05:23:33.622Z,29.63
2018-03-27T05:26:01.902Z,29.65
2018-03-27T05:28:30.181Z,29.08
2018-03-27T05:30:58.474Z,31.62
2018-03-27T05:33:25.963Z,31.80
2018-03-27T05:35:53.479Z,34.65
2018-03-27T05:38:21.766Z,32.72
2018-03-27T05:40:49.279Z,32.63
2018-03-27T05:43:16.807Z,33.63
2018-03-27T05:45:44.307Z,31.90
2018-03-27T05:48:11.887Z,30.17
2018-03-27T05:50:40.297Z,28.92
2018-03-27T05:53:07.766Z,31.27
2018-03-27T05:55:35.281Z,31.05
2018-03-27T05:58:03.621Z,29.45
2018-03-27T06:00:31.131Z,29.67
2018-03-27T06:02:58.622Z,30.35
2018-03-27T06:05:26.122Z,27.17
2018-03-27T06:07:53.708Z,26.92
2018-03-27T06:10:22.109Z,28.77
2018-03-27T06:12:49.629Z,27.05
2018-03-27T06:15:17.914Z,27.80
2018-03-27T06:17:45.410Z,28.10
2018-03-27T06:20:12.897Z,30.27
2018-03-27T06:22:40.398Z,28.85
2018-03-27T06:25:07.937Z,28.38
2018-03-27T06:27:36.336Z,27.45
2018-03-27T06:30:04.587Z,27.13
2018-03-27T06:32:32.854Z,28.40
2018-03-27T06:35:00.392Z,28.08
2018-03-27T06:37:27.998Z,26.30
2018-03-27T06:39:56.272Z,25.85
2018-03-27T06:42:24.580Z,26.70
2018-03-27T06:44:52.098Z,29.05
2018-03-27T06:47:20.366Z,25.83
2018-03-27T06:49:48.631Z,27.35
2018-03-27T06:52:16.218Z,25.88
2018-03-27T06:54:44.471Z,27.00
2018-03-27T06:57:12.067Z,28.25
2018-03-27T06:59:39.540Z,27.27
2018-03-27T07:02:07.026Z,28.33
2018-03-27T07:04:34.522Z,25.77
2018-03-27T07:07:02.830Z,27.95
2018-03-27T07:09:31.108Z,28.73
2018-03-27T07:11:58.622Z,26.27
2018-03-27T07:14:26.943Z,28.62
2018-03-27T07:16:55.180Z,28.65
2018-03-27T07:19:22.783Z,27.35
2018-03-27T07:21:51.038Z,25.85
2018-03-27T07:24:19.289Z,27.08
2018-03-27T07:26:46.783Z,28.38
2018-03-27T07:29:14.275Z,25.00
2018-03-27T07:31:41.776Z,26.65
2018-03-27T07:34:10.065Z,25.88
2018-03-27T07:36:37.571Z,27.52
2018-03-27T07:39:05.841Z,27.50
2018-03-27T07:41:33.354Z,24.27
2018-03-27T07:44:00.855Z,25.98
2018-03-27T07:46:28.357Z,25.00
2018-03-27T07:48:56.637Z,24.80
2018-03-27T07:51:24.904Z,25.27
2018-03-27T07:53:53.191Z,25.70
2018-03-27T07:56:21.455Z,26.05
2018-03-27T07:58:49.743Z,26.37
2018-03-27T08:01:18.034Z,26.23
2018-03-27T08:03:45.546Z,28.23
2018-03-27T08:06:13.854Z,26.62
2018-03-27T08:08:42.526Z,26.92
2018-03-27T08:11:11.069Z,26.77
2018-03-27T08:13:39.075Z,28.27
2018-03-27T08:16:07.455Z,26.20
2018-03-27T08:18:35.862Z,26.98
2018-03-27T08:21:03.369Z,28.02
2018-03-27T08:23:30.861Z,28.35
2018-03-27T08:25:59.246Z,30.12
2018-03-27T08:28:27.492Z,29.10
2018-03-27T08:30:54.987Z,30.12
2018-03-27T08:33:22.530Z,30.12
2018-03-27T08:35:50.794Z,31.87
2018-03-27T08:38:21.659Z,33.03
2018-03-27T08:40:49.902Z,34.03
2018-03-27T08:43:17.480Z,31.83
2018-03-27T08:45:45.731Z,32.53
2018-03-27T08:48:14.730Z,30.95
2018-03-27T08:50:42.236Z,31.30
2018-03-27T08:53:09.740Z,32.75
2018-03-27T08:55:37.178Z,34.35
2018-03-27T08:58:04.773Z,32.05
2018-03-27T09:00:33.043Z,28.48
2018-03-27T09:03:00.531Z,29.92
2018-03-27T09:05:28.067Z,30.75
2018-03-27T09:07:56.350Z,29.98
2018-03-27T09:10:24.627Z,27.15
2018-03-27T09:12:52.871Z,26.92
2018-03-27T09:15:20.409Z,26.25
2018-03-27T09:17:47.911Z,27.52
2018-03-27T09:20:16.322Z,27.55
2018-03-27T09:22:43.820Z,25.55
2018-03-27T09:25:11.321Z,25.40
2018-03-27T09:27:38.867Z,24.08
2018-03-27T09:30:07.150Z,19.27
2018-03-27T09:32:35.449Z,17.98
2018-03-27T09:35:02.980Z,17.62
2018-03-27T09:37:31.238Z,17.05
2018-03-27T09:39:58.733Z,16.02
2018-03-27T09:42:26.247Z,14.90
2018-03-27T09:44:53.755Z,14.07
2018-03-27T09:47:21.236Z,15.20
2018-03-27T09:49:48.857Z,14.43
2018-03-27T09:52:17.122Z,13.80
2018-03-27T09:54:45.407Z,13.27
2018-03-27T09:57:14.553Z,11.75
2018-03-27T09:59:42.052Z,12.77
2018-03-27T10:02:09.627Z,12.57
2018-03-27T10:04:37.132Z,12.00
2018-03-27T10:07:04.651Z,7.80
2018-03-27T10:09:32.202Z,8.57
2018-03-27T10:12:00.501Z,8.02
2018-03-27T10:14:27.987Z,8.27
2018-03-27T10:16:55.590Z,9.25
2018-03-27T10:19:23.855Z,9.73
2018-03-27T10:21:52.242Z,9.55
2018-03-27T10:24:20.528Z,8.93
2018-03-27T10:26:48.791Z,9.48
2018-03-27T10:29:17.094Z,8.88
2018-03-27T10:31:44.626Z,10.60
2018-03-27T10:34:12.923Z,10.55
2018-03-27T10:36:40.414Z,11.68
2018-03-27T10:39:08.536Z,12.52
2018-03-27T10:41:36.938Z,12.70
2018-03-27T10:44:04.479Z,14.05
2018-03-27T10:46:32.854Z,14.25
2018-03-27T10:49:01.132Z,13.18
2018-03-27T10:51:29.410Z,12.50
2018-03-27T10:53:57.682Z,13.93
2018-03-27T10:56:25.934Z,12.55
2018-03-27T10:58:53.455Z,12.10
2018-03-27T11:01:20.967Z,12.18
2018-03-27T11:03:49.382Z,12.73
2018-03-27T11:06:16.856Z,12.25
2018-03-27T11:08:44.465Z,11.98
2018-03-27T11:11:16.238Z,12.85
2018-03-27T11:13:44.489Z,11.80
2018-03-27T11:16:12.270Z,14.07
2018-03-27T11:18:40.543Z,14.20
2018-03-27T11:21:08.859Z,13.10
2018-03-27T11:23:36.366Z,14.50
2018-03-27T11:26:03.937Z,14.30
2018-03-27T11:28:32.215Z,14.18
2018-03-27T11:31:00.497Z,14.35
2018-03-27T11:33:28.763Z,13.38
2018-03-27T11:35:57.042Z,13.20
2018-03-27T11:38:25.305Z,14.90
2018-03-27T11:40:52.834Z,14.07
2018-03-27T11:43:21.157Z,16.37
2018-03-27T11:45:49.431Z,15.10
2018-03-27T11:48:16.919Z,15.30
2018-03-27T11:50:44.433Z,14.00
2018-03-27T11:53:12.027Z,15.63
2018-03-27T11:55:39.576Z,15.73
2018-03-27T11:58:08.090Z,15.68
2018-03-27T12:00:35.599Z,15.25
2018-03-27T12:03:03.166Z,13.70
2018-03-27T12:05:31.458Z,15.45
2018-03-27T12:07:59.000Z,16.65
2018-03-27T12:10:27.270Z,16.00
2018-03-27T12:12:54.787Z,16.30
2018-03-27T12:15:22.295Z,17.05
2018-03-27T12:17:50.575Z,16.75
2018-03-27T12:20:18.867Z,18.60
2018-03-27T12:22:46.366Z,17.77
2018-03-27T12:25:13.869Z,19.08
2018-03-27T12:27:42.349Z,19.85
2018-03-27T12:30:10.819Z,19.87
2018-03-27T12:32:39.098Z,19.35
2018-03-27T12:35:07.386Z,19.90
2018-03-27T12:37:35.670Z,19.95
2018-03-27T12:40:03.180Z,19.77
2018-03-27T12:42:30.695Z,20.30
2018-03-27T12:44:58.187Z,19.87
2018-03-27T12:47:25.690Z,19.77
2018-03-27T12:49:54.070Z,19.70
2018-03-27T12:52:22.358Z,21.52
2018-03-27T12:54:49.896Z,20.20
2018-03-27T12:57:17.487Z,20.48
2018-03-27T12:59:45.755Z,20.83
2018-03-27T13:02:13.306Z,21.98
2018-03-27T13:04:41.564Z,20.50
2018-03-27T13:07:09.069Z,19.17
2018-03-27T13:09:36.587Z,19.90
2018-03-27T13:12:04.907Z,20.62
2018-03-27T13:14:32.460Z,20.25
2018-03-27T13:16:59.914Z,20.90
2018-03-27T13:19:27.417Z,19.77
2018-03-27T13:21:54.937Z,20.55
2018-03-27T13:24:22.575Z,17.12
2018-03-27T13:26:50.084Z,18.92
2018-03-27T13:29:17.566Z,19.62
2018-03-27T13:31:45.173Z,18.77
2018-03-27T13:34:12.704Z,16.12
2018-03-27T13:36:40.989Z,17.05
2018-03-27T13:39:08.486Z,16.80
2018-03-27T13:41:36.031Z,16.42
2018-03-27T13:44:06.825Z,17.17
2018-03-27T13:46:35.102Z,15.93
2018-03-27T13:49:03.393Z,17.27
2018-03-27T13:51:30.978Z,17.20
2018-03-27T13:53:58.519Z,16.98
2018-03-27T13:56:26.016Z,18.37
2018-03-27T13:58:53.540Z,16.50
2018-03-27T14:01:21.021Z,17.50
2018-03-27T14:03:48.529Z,17.50
2018-03-27T14:06:17.116Z,16.92
2018-03-27T14:08:45.383Z,17.52
2018-03-27T14:11:13.668Z,19.00
2018-03-27T14:13:42.254Z,17.80
2018-03-27T14:16:10.531Z,19.08
2018-03-27T14:18:39.217Z,19.65
2018-03-27T14:21:07.590Z,19.05
2018-03-27T14:23:36.321Z,19.25
2018-03-27T14:26:04.655Z,18.73
2018-03-27T14:28:32.923Z,20.00
2018-03-27T14:31:01.302Z,19.60
2018-03-27T14:33:29.624Z,21.90
2018-03-27T14:35:57.091Z,22.67
2018-03-27T14:38:24.691Z,21.60
2018-03-27T14:40:52.230Z,19.37
2018-03-27T14:43:19.832Z,16.80
2018-03-27T14:45:48.114Z,18.67
2018-03-27T14:48:15.610Z,18.10
2018-03-27T14:50:43.835Z,18.90
2018-03-27T14:53:12.101Z,18.42
2018-03-27T14:55:40.370Z,18.42
2018-03-27T14:58:07.914Z,20.15
2018-03-27T15:00:35.450Z,21.37
2018-03-27T15:03:02.922Z,19.45
2018-03-27T15:05:30.453Z,20.17
2018-03-27T15:07:57.970Z,19.75
2018-03-27T15:10:26.215Z,20.25
2018-03-27T15:12:53.806Z,19.30
2018-03-27T15:15:21.378Z,19.17
2018-03-27T15:17:49.698Z,19.70
2018-03-27T15:20:17.296Z,20.37
2018-03-27T15:22:44.778Z,20.98
2018-03-27T15:25:13.042Z,20.00
2018-03-27T15:27:41.418Z,22.17
2018-03-27T15:30:09.735Z,20.25
2018-03-27T15:32:37.254Z,22.10
2018-03-27T15:35:05.542Z,21.30
2018-03-27T15:37:33.802Z,24.20
2018-03-27T15:40:01.303Z,21.50
2018-03-27T15:42:28.870Z,22.25
2018-03-27T15:44:56.485Z,22.52
2018-03-27T15:47:24.764Z,23.90
2018-03-27T15:49:53.145Z,22.30
2018-03-27T15:52:21.435Z,22.30
2018-03-27T15:54:49.690Z,23.15
2018-03-27T15:57:17.986Z,23.80
2018-03-27T15:59:45.478Z,22.67
2018-03-27T16:02:12.981Z,24.37
2018-03-27T16:04:41.272Z,22.52
2018-03-27T16:07:09.647Z,23.33
2018-03-27T16:09:37.189Z,22.15
2018-03-27T16:12:04.823Z,20.98
2018-03-27T16:14:32.411Z,17.45
2018-03-27T16:17:00.070Z,17.90
2018-03-27T16:19:27.648Z,17.55
2018-03-27T16:21:55.921Z,14.95
2018-03-27T16:24:23.482Z,12.05
2018-03-27T16:26:51.762Z,11.75
2018-03-27T16:29:20.066Z,11.05
2018-03-27T16:31:47.744Z,12.10
2018-03-27T16:34:15.395Z,11.27
2018-03-27T16:36:42.827Z,8.73
2018-03-27T16:39:10.383Z,10.18
2018-03-27T16:41:37.934Z,10.45
2018-03-27T16:44:06.192Z,10.68
2018-03-27T16:46:33.696Z,14.60
2018-03-27T16:49:01.537Z,12.10
2018-03-27T16:51:29.784Z,11.88
2018-03-27T16:53:57.280Z,12.02
2018-03-27T16:56:24.758Z,12.15
2018-03-27T16:58:52.253Z,13.27
2018-03-27T17:01:19.750Z,12.05
2018-03-27T17:03:47.367Z,12.10
2018-03-27T17:06:15.549Z,12.82
2018-03-27T17:08:43.122Z,13.00
2018-03-27T17:11:11.502Z,13.00
2018-03-27T17:13:39.071Z,14.65
2018-03-27T17:16:07.505Z,13.55
2018-03-27T17:18:34.962Z,13.80
2018-03-27T17:21:02.558Z,15.00
2018-03-27T17:23:30.846Z,17.23
2018-03-27T17:25:59.115Z,15.95
2018-03-27T17:28:27.407Z,16.52
2018-03-27T17:30:55.054Z,17.87
2018-03-27T17:33:23.311Z,18.52
2018-03-27T17:35:50.794Z,18.80
2018-03-27T17:38:18.446Z,18.65
2018-03-27T17:40:46.720Z,19.87
2018-03-27T17:43:15.001Z,19.87
2018-03-27T17:45:43.275Z,19.95
2018-03-27T17:48:11.589Z,20.60
2018-03-27T17:50:40.050Z,20.77
2018-03-27T17:53:08.308Z,21.10
2018-03-27T17:55:36.587Z,22.00
2018-03-27T17:58:04.956Z,22.52
2018-03-27T18:00:33.248Z,24.10
2018-03-27T18:03:02.228Z,23.10
2018-03-27T18:05:30.511Z,24.15
2018-03-27T18:07:59.094Z,25.40
2018-03-27T18:10:27.500Z,24.83
2018-03-27T18:12:55.022Z,27.23
2018-03-27T18:15:23.602Z,27.48
2018-03-27T18:17:51.891Z,28.27
2018-03-27T18:20:20.147Z,26.77
2018-03-27T18:22:47.681Z,28.17
2018-03-27T18:25:15.171Z,29.50
2018-03-27T18:27:42.777Z,29.27
2018-03-27T18:30:10.314Z,30.10
2018-03-27T18:32:39.494Z,29.85
2018-03-27T18:35:07.743Z,30.40
2018-03-27T18:37:36.153Z,30.65
2018-03-27T18:40:04.515Z,29.90
2018-03-27T18:42:32.088Z,30.00
2018-03-27T18:45:01.601Z,34.97
2018-03-27T18:47:29.290Z,33.67
2018-03-27T18:49:57.277Z,35.38
2018-03-27T18:52:25.010Z,32.45
2018-03-27T18:54:54.457Z,33.03
2018-03-27T18:57:22.889Z,33.90
2018-03-27T18:59:50.667Z,35.47
2018-03-27T19:02:18.178Z,33.38
2018-03-27T19:04:46.474Z,35.00
2018-03-27T19:07:14.735Z,35.15
2018-03-27T19:09:43.131Z,34.80
2018-03-27T19:12:11.398Z,32.35
2018-03-27T19:14:39.689Z,36.35
2018-03-27T19:17:08.060Z,33.28
2018-03-27T19:19:36.346Z,35.38
2018-03-27T19:22:03.846Z,35.15
2018-03-27T19:24:31.375Z,34.78
2018-03-27T19:26:58.999Z,33.88
2018-03-27T19:29:27.302Z,32.80
2018-03-27T19:31:54.804Z,32.75
2018-03-27T19:34:22.364Z,31.87
2018-03-27T19:36:49.905Z,32.00
2018-03-27T19:39:17.424Z,33.58
2018-03-27T19:41:45.689Z,32.95
2018-03-27T19:44:14.066Z,34.75
2018-03-27T19:46:42.396Z,37.25
2018-03-27T19:49:10.006Z,35.22
2018-03-27T19:51:38.268Z,33.38
2018-03-27T19:54:05.842Z,32.67
2018-03-27T19:56:34.265Z,32.70
2018-03-27T19:59:01.851Z,32.35
2018-03-27T20:01:29.334Z,33.92
2018-03-27T20:03:57.742Z,34.38
2018-03-27T20:06:25.245Z,34.90
2018-03-27T20:08:52.739Z,32.88
2018-03-27T20:11:20.330Z,35.40
2018-03-27T20:13:47.970Z,32.80
2018-03-27T20:16:15.449Z,32.40
2018-03-27T20:18:42.973Z,32.33
2018-03-27T20:21:11.221Z,31.87
2018-03-27T20:23:38.715Z,32.03
2018-03-27T20:26:07.311Z,32.95
2018-03-27T20:28:34.843Z,31.40
2018-03-27T20:31:03.149Z,30.25
2018-03-27T20:33:31.089Z,31.05
2018-03-27T20:35:59.403Z,29.65
2018-03-27T20:38:27.026Z,30.08
2018-03-27T20:40:55.317Z,29.17
2018-03-27T20:43:23.986Z,30.23
2018-03-27T20:45:52.256Z,30.62
2018-03-27T20:48:19.785Z,29.65
2018-03-27T20:50:47.270Z,28.62
2018-03-27T20:53:14.750Z,28.50
2018-03-27T20:55:43.034Z,28.33
2018-03-27T20:58:10.535Z,28.15
2018-03-27T21:00:38.383Z,28.10
2018-03-27T21:03:05.902Z,27.80
2018-03-27T21:05:34.163Z,28.00
2018-03-27T21:08:01.735Z,28.60
2018-03-27T21:10:30.063Z,26.60
2018-03-27T21:12:57.582Z,28.00
2018-03-27T21:15:25.143Z,27.77
2018-03-27T21:17:53.827Z,28.92
2018-03-27T21:20:22.087Z,28.15
2018-03-27T21:22:52.566Z,27.08
2018-03-27T21:25:20.912Z,27.67
2018-03-27T21:27:48.474Z,26.25
2018-03-27T21:30:15.966Z,27.42
2018-03-27T21:32:43.582Z,27.73
2018-03-27T21:35:12.611Z,27.70
2018-03-27T21:37:40.649Z,28.23
2018-03-27T21:40:08.221Z,28.20
2018-03-27T21:42:35.709Z,27.13
2018-03-27T21:45:04.005Z,27.13
2018-03-27T21:47:31.694Z,29.02
2018-03-27T21:49:59.981Z,27.15
2018-03-27T21:52:28.234Z,27.67
2018-03-27T21:54:55.745Z,29.10
2018-03-27T21:57:23.217Z,26.87
2018-03-27T21:59:50.784Z,25.80
2018-03-27T22:02:18.376Z,27.00
2018-03-27T22:04:45.863Z,27.73
2018-03-27T22:07:13.396Z,27.00
2018-03-27T22:09:41.842Z,26.85
2018-03-27T22:12:09.438Z,24.87
2018-03-27T22:14:37.708Z,25.25
2018-03-27T22:17:05.993Z,26.90
2018-03-27T22:19:34.251Z,27.15
2018-03-27T22:22:01.856Z,27.92
2018-03-27T22:24:31.083Z,26.20
2018-03-27T22:26:58.594Z,27.58
2018-03-27T22:29:26.958Z,26.55
2018-03-27T22:31:55.342Z,26.52
2018-03-27T22:34:23.621Z,24.83
2018-03-27T22:36:51.900Z,27.00
2018-03-27T22:39:20.185Z,27.33
2018-03-27T22:41:48.516Z,25.00
2018-03-27T22:44:16.026Z,26.87
2018-03-27T22:46:43.524Z,25.50
2018-03-27T22:49:11.954Z,26.77
2018-03-27T22:51:40.216Z,28.05
2018-03-27T22:54:08.485Z,28.12
2018-03-27T22:56:35.987Z,26.50
2018-03-27T22:59:03.515Z,26.25
2018-03-27T23:01:31.858Z,26.50
2018-03-27T23:03:59.350Z,25.52
2018-03-27T23:06:27.740Z,24.05
2018-03-27T23:08:56.111Z,25.92
2018-03-27T23:11:24.425Z,26.35
2018-03-27T23:13:51.890Z,29.85
2018-03-27T23:16:19.432Z,30.17
2018-03-27T23:18:46.925Z,28.98
2018-03-27T23:21:14.424Z,27.65
2018-03-27T23:23:42.725Z,25.15
2018-03-27T23:26:10.272Z,26.35
2018-03-27T23:28:38.676Z,25.30
2018-03-27T23:31:06.290Z,24.75
2018-03-27T23:33:34.580Z,27.60
2018-03-27T23:36:02.841Z,26.55
2018-03-27T23:38:31.156Z,25.75
2018-03-27T23:40:58.710Z,28.23
2018-03-27T23:43:26.274Z,27.60
2018-03-27T23:45:53.778Z,26.00
2018-03-27T23:48:22.272Z,28.17
2018-03-27T23:50:49.815Z,26.67
2018-03-27T23:53:17.322Z,29.30
2018-03-27T23:55:44.867Z,29.50
2018-03-27T23:58:12.362Z,26.85
